Tussy, OK

1:41 PM CST on February 01, 2015 (GMT -0600)
Pauls Valley Municipal | Change Station
CLOSE
Current Station
Airport
Location: Pauls Valley,
Elevation: 968 ft
Nearby Weather Stations

Elev 968 ft 34.71 °N, 97.22 °W | Updated 6 minutes ago

Mostly Cloudy
Mostly Cloudy
41 °F
Feels Like 31 °F
N
24
Wind Variable Wind from NW
Gusts 30 mph

Today
High -- | Low -- °F
--% Chance of Precip.
Yesterday
High -- | Low -- °F
Precip. -- in
7:28 AM 5:59 PM
Waxing Gibbous, 96% visible
Pressure 30.06 in
Visibility 10.0 miles
Clouds Scattered Clouds 2900 ft
Scattered Clouds 12000 ft
Windchill 31 °F
Dew Point 29 °F
Humidity 63%
Rainfall 0.11 in
Snow Depth Not available.
UV 4 out of 12
Pollen 2.80 out of 12
Air Quality Not available.
Flu Activity Not available.
METAR KPVJ 011935Z AUTO 32021G26KT 10SM SCT029 SCT120 05/M02 A3006 RMK AO2 T00501016

More Conditions Fewer Conditions

Pressure 30.06 in
Visibility 10.0 miles
Clouds Scattered Clouds 2900 ft
Scattered Clouds 12000 ft
Windchill 31 °F
Dew Point 29 °F
Humidity 63%
Rainfall 0.11 in
Snow Depth Not available.
UV 4 out of 12
Pollen 2.80 out of 12
Air Quality Not available.
Flu Activity Not available.
METAR KPVJ 011935Z AUTO 32021G26KT 10SM SCT029 SCT120 05/M02 A3006 RMK AO2 T00501016

More Conditions Fewer Conditions

10-Day Weather Forecast

Almanac

Astronomy

Feb. 01, 2015 Rise Set
Actual Time
Civil Twilight
Nautical Twilight
Astronomical Twilight
Moon
Length of Visible Light
Length of Day
Tomorrow will be .
, % of the Moon is Illuminated

Today's Extremes

State Highs State Lows

Community

WunderPhotos

Upload Photos

1,792,471 photos uploaded!

WunderBlogs® & News

Nearby

Air Quality

  Air Quality AQ Index Pollutant
Not available.

Snow Depth

Station Depth Elevation

Earthquake Activity

City Distance Mag. Time & Date
Minimum magnitude displayed is 2.5.

Coastal Water Temperatures

Place Temperature

Nearby Weather Stations